createdAt,value
2023-04-20T00:07:59.078Z,1.87
2023-04-20T00:18:01.636Z,1.67
2023-04-20T00:28:03.739Z,2.27
2023-04-20T00:38:05.893Z,2.33
2023-04-20T00:48:07.926Z,2.13
2023-04-20T00:58:11.529Z,2.20
2023-04-20T01:08:13.589Z,2.00
2023-04-20T01:18:18.920Z,2.27
2023-04-20T01:28:21.148Z,1.87
2023-04-20T01:38:23.923Z,2.23
2023-04-20T01:48:26.028Z,1.70
2023-04-20T01:58:29.191Z,2.03
2023-04-20T02:08:31.360Z,1.63
2023-04-20T02:18:33.568Z,2.13
2023-04-20T02:28:36.014Z,1.87
2023-04-20T02:38:40.153Z,2.00
2023-04-20T02:48:42.919Z,1.87
2023-04-20T02:58:48.188Z,2.03
2023-04-20T03:09:10.544Z,2.20
2023-04-20T03:19:28.178Z,2.47
2023-04-20T03:29:30.736Z,2.80
2023-04-20T03:39:33.449Z,2.60
2023-04-20T03:49:35.945Z,2.93
2023-04-20T03:59:38.422Z,3.03
2023-04-20T04:09:42.123Z,2.70
2023-04-20T04:19:45.025Z,2.33
2023-04-20T04:29:47.218Z,2.73
2023-04-20T04:39:53.898Z,2.10
2023-04-20T04:50:05.760Z,2.07
2023-04-20T05:00:12.475Z,1.90
2023-04-20T05:10:15.347Z,2.30
2023-04-20T05:20:18.131Z,2.70
2023-04-20T05:30:21.906Z,2.50
2023-04-20T05:40:24.510Z,4.03
2023-04-20T05:50:27.196Z,4.03
2023-04-20T06:00:29.336Z,3.70
2023-04-20T06:10:34.079Z,4.17
2023-04-20T06:20:36.422Z,3.93
2023-04-20T06:30:38.649Z,4.93
2023-04-20T06:40:41.110Z,4.53
2023-04-20T06:50:43.316Z,4.87
2023-04-20T07:00:45.718Z,4.23
2023-04-20T07:10:47.958Z,4.57
2023-04-20T07:20:50.224Z,5.13
2023-04-20T07:30:52.308Z,4.80
2023-04-20T07:40:54.598Z,4.07
2023-04-20T07:50:56.719Z,4.20
2023-04-20T08:00:59.890Z,5.00
2023-04-20T08:11:02.054Z,4.93
2023-04-20T08:21:04.745Z,5.13
2023-04-20T08:31:06.959Z,5.83
2023-04-20T08:41:09.152Z,3.50
2023-04-20T08:51:12.098Z,3.67
2023-04-20T09:01:17.731Z,4.13
2023-04-20T09:11:23.118Z,4.53
2023-04-20T09:21:28.067Z,5.57
2023-04-20T09:31:30.394Z,5.43
2023-04-20T09:41:33.580Z,5.10
2023-04-20T09:51:37.644Z,3.73
2023-04-20T10:01:40.288Z,3.73
2023-04-20T10:11:52.407Z,4.30
2023-04-20T10:21:56.649Z,3.80
2023-04-20T10:31:58.981Z,3.90
2023-04-20T10:42:03.706Z,3.57
2023-04-20T10:52:05.878Z,3.63
2023-04-20T11:02:08.425Z,2.67
2023-04-20T11:12:15.710Z,2.50
2023-04-20T11:23:16.853Z,2.97
2023-04-20T11:33:28.644Z,3.20
2023-04-20T11:43:32.440Z,2.90
2023-04-20T11:53:34.875Z,3.27
2023-04-20T12:03:37.307Z,3.20
2023-04-20T12:13:39.659Z,3.43
2023-04-20T12:23:42.760Z,3.33
2023-04-20T12:33:44.833Z,3.67
2023-04-20T12:43:46.995Z,3.77
2023-04-20T12:53:49.182Z,4.10
2023-04-20T13:03:52.756Z,4.13
2023-04-20T13:13:56.490Z,4.80
2023-04-20T13:23:58.649Z,6.00
2023-04-20T13:34:01.244Z,5.93
2023-04-20T13:44:04.739Z,5.95
2023-04-20T13:54:08.392Z,6.00
2023-04-20T14:04:10.932Z,5.70
2023-04-20T14:14:13.308Z,5.90
2023-04-20T14:24:15.609Z,5.00
2023-04-20T14:34:18.114Z,5.15
2023-04-20T14:44:20.666Z,5.05
2023-04-20T14:54:22.897Z,4.50
2023-04-20T15:04:25.322Z,4.20
2023-04-20T15:14:28.174Z,4.70
2023-04-20T15:24:30.513Z,4.03
2023-04-20T15:34:32.620Z,3.50
2023-04-20T15:44:34.816Z,2.90
2023-04-20T15:54:37.239Z,3.77
2023-04-20T16:04:39.389Z,2.92
2023-04-20T16:14:41.687Z,3.38
2023-04-20T16:24:43.815Z,2.80
2023-04-20T16:34:45.925Z,2.90
2023-04-20T16:44:48.000Z,3.30
2023-04-20T16:54:50.121Z,3.75
2023-04-20T17:04:52.233Z,3.20
2023-04-20T17:14:55.203Z,3.72
2023-04-20T17:24:57.599Z,4.20
2023-04-20T17:34:59.864Z,4.77
2023-04-20T17:45:01.906Z,4.87
2023-04-20T17:55:04.236Z,5.63
2023-04-20T18:05:06.833Z,5.83
2023-04-20T18:15:09.447Z,5.67
2023-04-20T18:25:11.524Z,5.90
2023-04-20T18:35:13.681Z,6.93
2023-04-20T18:45:16.040Z,5.90
2023-04-20T18:55:18.117Z,6.43
2023-04-20T19:05:20.245Z,6.32
2023-04-20T19:15:25.599Z,7.40
2023-04-20T19:25:27.927Z,9.00
2023-04-20T19:35:30.184Z,9.63
2023-04-20T19:45:32.250Z,11.13
2023-04-20T19:55:34.414Z,11.23
2023-04-20T20:05:36.455Z,11.57
2023-04-20T20:15:38.718Z,11.30
2023-04-20T20:25:40.944Z,11.27
2023-04-20T20:35:43.055Z,10.17
2023-04-20T20:45:45.280Z,9.20
2023-04-20T20:55:47.455Z,8.57
2023-04-20T21:05:49.681Z,9.07
2023-04-20T21:15:51.788Z,9.27
2023-04-20T21:25:54.071Z,9.77
2023-04-20T21:35:58.365Z,9.60
2023-04-20T21:46:01.116Z,10.03
2023-04-20T21:56:03.305Z,9.80
2023-04-20T22:06:06.376Z,10.07
2023-04-20T22:16:08.479Z,10.30
2023-04-20T22:26:10.610Z,10.87
2023-04-20T22:36:13.133Z,11.10
2023-04-20T22:46:15.309Z,12.03
2023-04-20T22:56:17.618Z,12.33
2023-04-20T23:06:21.800Z,13.13
2023-04-20T23:16:23.987Z,14.53
2023-04-20T23:26:26.082Z,16.43
2023-04-20T23:36:28.136Z,16.30
2023-04-20T23:46:30.413Z,15.83
2023-04-20T23:56:32.529Z,18.07
